createdAt,value
2017-08-28T00:00:57.441Z,9.87
2017-08-28T00:03:25.060Z,10.53
2017-08-28T00:05:52.630Z,10.70
2017-08-28T00:08:20.415Z,5.00
2017-08-28T00:10:48.178Z,10.03
2017-08-28T00:13:16.057Z,9.50
2017-08-28T00:15:43.638Z,5.93
2017-08-28T00:18:11.311Z,5.67
2017-08-28T00:20:38.907Z,8.00
2017-08-28T00:23:06.615Z,6.87
2017-08-28T00:25:34.408Z,8.13
2017-08-28T00:28:02.215Z,5.40
2017-08-28T00:30:29.799Z,12.93
2017-08-28T00:32:57.560Z,6.60
2017-08-28T00:35:25.208Z,7.57
2017-08-28T00:37:52.792Z,9.00
2017-08-28T00:40:20.419Z,7.20
2017-08-28T00:42:47.998Z,7.93
2017-08-28T00:45:15.648Z,9.53
2017-08-28T00:47:43.412Z,9.10
2017-08-28T00:50:11.284Z,9.80
2017-08-28T00:52:38.954Z,8.23
2017-08-28T00:55:06.710Z,11.67
2017-08-28T00:57:34.454Z,7.33
2017-08-28T01:00:02.037Z,11.43
2017-08-28T01:02:29.675Z,8.60
2017-08-28T01:04:57.446Z,9.73
2017-08-28T01:07:25.208Z,12.37
2017-08-28T01:09:52.781Z,11.50
2017-08-28T01:12:20.435Z,6.00
2017-08-28T01:14:48.199Z,9.83
2017-08-28T01:17:15.764Z,6.77
2017-08-28T01:19:43.526Z,7.73
2017-08-28T01:22:11.183Z,7.83
2017-08-28T01:24:39.227Z,9.60
2017-08-28T01:27:06.796Z,8.63
2017-08-28T01:29:34.463Z,9.23
2017-08-28T01:32:02.126Z,9.20
2017-08-28T01:34:30.490Z,8.30
2017-08-28T01:36:58.093Z,9.00
2017-08-28T01:39:25.832Z,8.93
2017-08-28T01:41:53.471Z,7.30
2017-08-28T01:44:21.055Z,7.93
2017-08-28T01:46:49.003Z,10.57
2017-08-28T01:49:16.694Z,7.60
2017-08-28T01:51:44.457Z,8.70
2017-08-28T01:54:12.403Z,8.13
2017-08-28T01:56:40.291Z,6.80
2017-08-28T01:59:07.935Z,14.13
2017-08-28T02:01:36.259Z,8.73
2017-08-28T02:04:03.832Z,9.03
2017-08-28T02:06:31.419Z,9.27
2017-08-28T02:08:58.982Z,9.33
2017-08-28T02:11:27.046Z,5.93
2017-08-28T02:13:54.815Z,8.87
2017-08-28T02:16:22.709Z,7.17
2017-08-28T02:18:50.470Z,5.40
2017-08-28T02:21:18.131Z,6.60
2017-08-28T02:23:45.688Z,7.93
2017-08-28T02:26:13.454Z,6.20
2017-08-28T02:28:41.019Z,6.80
2017-08-28T02:31:08.588Z,10.20
2017-08-28T02:33:36.312Z,10.03
2017-08-28T02:36:03.899Z,6.33
2017-08-28T02:38:31.539Z,6.37
2017-08-28T02:40:59.164Z,7.60
2017-08-28T02:43:27.628Z,11.77
2017-08-28T02:45:55.440Z,7.67
2017-08-28T02:48:23.511Z,11.73
2017-08-28T02:50:51.087Z,7.83
2017-08-28T02:53:19.657Z,7.00
2017-08-28T02:55:47.423Z,8.47
2017-08-28T02:58:15.179Z,8.50
2017-08-28T03:00:42.927Z,10.63
2017-08-28T03:03:10.719Z,6.50
2017-08-28T03:05:38.459Z,8.33
2017-08-28T03:08:06.235Z,8.37
2017-08-28T03:10:33.990Z,10.13
2017-08-28T03:13:01.580Z,10.40
2017-08-28T03:15:29.222Z,13.50
2017-08-28T03:17:56.783Z,6.37
2017-08-28T03:20:24.363Z,7.13
2017-08-28T03:22:52.467Z,10.20
2017-08-28T03:25:20.057Z,9.20
2017-08-28T03:27:47.747Z,9.20
2017-08-28T03:30:15.419Z,5.60
2017-08-28T03:32:42.983Z,5.13
2017-08-28T03:35:10.575Z,13.57
2017-08-28T03:37:38.159Z,7.53
2017-08-28T03:40:05.946Z,11.23
2017-08-28T03:42:33.519Z,8.00
2017-08-28T03:45:01.278Z,9.70
2017-08-28T03:47:28.892Z,7.63
2017-08-28T03:49:56.595Z,12.57
2017-08-28T03:52:24.257Z,6.03
2017-08-28T03:54:51.917Z,6.80
2017-08-28T03:57:19.511Z,10.00
2017-08-28T03:59:47.080Z,9.83
2017-08-28T04:02:14.672Z,7.67
2017-08-28T04:04:42.330Z,7.17
2017-08-28T04:07:09.912Z,11.17
2017-08-28T04:09:37.540Z,14.27
2017-08-28T04:12:05.186Z,8.57
2017-08-28T04:14:32.792Z,10.37
2017-08-28T04:17:00.539Z,10.40
2017-08-28T04:19:28.311Z,9.20
2017-08-28T04:21:55.908Z,13.30
2017-08-28T04:24:23.650Z,7.03
2017-08-28T04:26:51.207Z,10.07
2017-08-28T04:29:18.868Z,9.37
2017-08-28T04:31:46.432Z,8.90
2017-08-28T04:34:14.012Z,9.27
2017-08-28T04:36:41.620Z,8.07
2017-08-28T04:39:09.499Z,12.43
2017-08-28T04:41:37.243Z,9.13
2017-08-28T04:44:05.023Z,12.23
2017-08-28T04:46:32.790Z,9.77
2017-08-28T04:49:00.551Z,7.77
2017-08-28T04:51:28.316Z,10.33
2017-08-28T04:53:55.895Z,8.27
2017-08-28T04:56:23.539Z,10.50
2017-08-28T04:58:51.294Z,8.80
2017-08-28T05:01:19.068Z,10.47
2017-08-28T05:03:47.132Z,13.00
2017-08-28T05:06:14.894Z,8.83
2017-08-28T05:08:42.664Z,9.30
2017-08-28T05:11:11.403Z,10.87
2017-08-28T05:13:39.099Z,13.17
2017-08-28T05:16:06.888Z,18.33
2017-08-28T05:18:34.471Z,18.83
2017-08-28T05:21:02.102Z,12.43
2017-08-28T05:23:29.843Z,11.87
2017-08-28T05:25:57.618Z,17.30
2017-08-28T05:28:25.383Z,13.53
2017-08-28T05:30:54.003Z,12.57
2017-08-28T05:33:21.706Z,14.73
2017-08-28T05:35:49.595Z,14.20
2017-08-28T05:38:17.160Z,13.93
2017-08-28T05:40:44.854Z,12.67
2017-08-28T05:43:12.559Z,14.83
2017-08-28T05:45:40.128Z,11.70
2017-08-28T05:48:07.715Z,14.43
2017-08-28T05:50:35.274Z,20.10
2017-08-28T05:53:03.019Z,25.63
2017-08-28T05:55:30.788Z,21.93
2017-08-28T05:57:58.567Z,22.10
2017-08-28T06:00:26.315Z,31.33
2017-08-28T06:02:54.080Z,25.10
2017-08-28T06:05:21.843Z,18.93
2017-08-28T06:07:49.612Z,20.60
2017-08-28T06:10:17.176Z,25.77
2017-08-28T06:12:44.764Z,35.37
2017-08-28T06:15:12.452Z,31.07
2017-08-28T06:17:40.039Z,26.20
2017-08-28T06:20:08.424Z,21.80
2017-08-28T06:22:36.302Z,30.73
2017-08-28T06:25:04.577Z,29.93
2017-08-28T06:27:32.256Z,21.73
2017-08-28T06:29:59.843Z,20.50
2017-08-28T06:32:27.520Z,20.40
2017-08-28T06:34:55.619Z,32.80
2017-08-28T06:37:23.379Z,25.10
2017-08-28T06:39:50.954Z,23.97
2017-08-28T06:42:18.599Z,22.13
2017-08-28T06:44:46.187Z,19.20
2017-08-28T06:47:13.822Z,20.90
2017-08-28T06:49:41.530Z,26.23
2017-08-28T06:52:09.466Z,54.90
2017-08-28T06:54:37.115Z,29.90
2017-08-28T06:57:04.878Z,31.67
2017-08-28T06:59:32.949Z,32.13
2017-08-28T07:02:00.713Z,38.63
2017-08-28T07:04:28.475Z,39.83
2017-08-28T07:06:56.239Z,35.83
2017-08-28T07:09:24.012Z,30.23
2017-08-28T07:11:51.606Z,28.70
2017-08-28T07:14:19.204Z,29.27
2017-08-28T07:16:46.818Z,18.80
2017-08-28T07:19:14.421Z,18.43
2017-08-28T07:21:42.548Z,18.17
2017-08-28T07:24:10.278Z,12.53
2017-08-28T07:26:37.863Z,13.70
2017-08-28T07:29:05.613Z,14.43
2017-08-28T07:31:33.270Z,8.07
2017-08-28T07:34:02.624Z,8.37
2017-08-28T07:36:30.211Z,15.23
2017-08-28T07:38:58.089Z,8.60
2017-08-28T07:41:26.163Z,11.87
2017-08-28T07:43:54.229Z,9.10
2017-08-28T07:46:22.295Z,14.57
2017-08-28T07:48:50.371Z,13.63
2017-08-28T07:51:18.070Z,15.00
2017-08-28T07:53:45.660Z,23.50
2017-08-28T07:56:13.471Z,18.13
2017-08-28T07:58:41.051Z,8.30
2017-08-28T08:01:08.883Z,15.50
2017-08-28T08:03:36.643Z,12.07
2017-08-28T08:06:04.202Z,9.77
2017-08-28T08:08:31.779Z,7.80
2017-08-28T08:10:59.363Z,12.73
2017-08-28T08:13:27.099Z,16.40
2017-08-28T08:15:55.588Z,16.27
2017-08-28T08:18:23.192Z,17.33
2017-08-28T08:20:50.758Z,6.47
2017-08-28T08:23:18.355Z,20.23
2017-08-28T08:25:45.929Z,10.20
2017-08-28T08:28:13.620Z,11.80
2017-08-28T08:30:41.279Z,14.57
2017-08-28T08:33:08.842Z,10.80
2017-08-28T08:35:36.653Z,8.10
2017-08-28T08:38:04.445Z,4.03
2017-08-28T08:40:32.060Z,11.47
2017-08-28T08:42:59.626Z,15.53
2017-08-28T08:45:27.295Z,11.33
2017-08-28T08:47:55.273Z,11.70
2017-08-28T08:50:22.924Z,4.90
2017-08-28T08:52:50.674Z,4.20
2017-08-28T08:55:18.756Z,20.03
2017-08-28T08:57:46.323Z,11.70
2017-08-28T09:00:13.993Z,6.13
2017-08-28T09:02:41.743Z,8.67
2017-08-28T09:05:09.335Z,4.50
2017-08-28T09:07:37.095Z,8.17
2017-08-28T09:10:04.699Z,5.83
2017-08-28T09:12:32.501Z,8.13
2017-08-28T09:15:00.261Z,6.07
2017-08-28T09:17:27.844Z,25.13
2017-08-28T09:19:55.636Z,5.43
2017-08-28T09:22:23.239Z,13.67
2017-08-28T09:24:51.003Z,7.63
2017-08-28T09:27:18.687Z,6.03
2017-08-28T09:29:46.248Z,6.00
2017-08-28T09:32:14.002Z,9.60
2017-08-28T09:34:41.579Z,11.40
2017-08-28T09:37:09.161Z,7.80
2017-08-28T09:39:37.539Z,12.53
2017-08-28T09:42:05.360Z,5.10
2017-08-28T09:44:33.022Z,6.93
2017-08-28T09:47:00.907Z,9.77
2017-08-28T09:49:28.664Z,8.10
2017-08-28T09:51:56.228Z,7.17
2017-08-28T09:54:23.847Z,15.73
2017-08-28T09:56:51.623Z,11.00
2017-08-28T09:59:19.209Z,8.87
2017-08-28T10:01:46.838Z,5.93
2017-08-28T10:04:14.598Z,4.87
2017-08-28T10:06:42.346Z,6.27
2017-08-28T10:09:10.127Z,14.87
2017-08-28T10:11:38.344Z,15.03
2017-08-28T10:14:06.051Z,5.77
2017-08-28T10:16:33.747Z,11.47
2017-08-28T10:19:01.499Z,7.03
2017-08-28T10:21:29.835Z,4.83
2017-08-28T10:23:57.636Z,11.00
2017-08-28T10:26:25.383Z,14.47
2017-08-28T10:28:53.166Z,11.70
2017-08-28T10:31:20.927Z,18.30
2017-08-28T10:33:48.691Z,14.60
2017-08-28T10:36:16.455Z,9.17
2017-08-28T10:38:44.218Z,10.73
2017-08-28T10:41:12.290Z,8.50
2017-08-28T10:43:39.857Z,19.57
2017-08-28T10:46:07.844Z,11.60
2017-08-28T10:48:35.584Z,10.17
2017-08-28T10:51:03.173Z,12.57
2017-08-28T10:53:30.744Z,10.90
2017-08-28T10:55:58.323Z,13.60
2017-08-28T10:58:26.021Z,12.20
2017-08-28T11:00:54.083Z,11.47
2017-08-28T11:03:21.651Z,20.53
2017-08-28T11:05:49.309Z,7.10
2017-08-28T11:08:16.874Z,39.00
2017-08-28T11:10:44.540Z,13.53
2017-08-28T11:13:12.290Z,10.67
2017-08-28T11:15:40.026Z,15.60
2017-08-28T11:18:07.823Z,10.63
2017-08-28T11:20:35.404Z,14.73
2017-08-28T11:23:03.050Z,10.57
2017-08-28T11:25:30.782Z,18.50
2017-08-28T11:27:58.585Z,14.97
2017-08-28T11:30:26.195Z,22.53
2017-08-28T11:32:53.787Z,60.93
2017-08-28T11:35:21.564Z,21.83
2017-08-28T11:37:49.169Z,37.10
2017-08-28T11:40:16.739Z,24.80
2017-08-28T11:42:44.550Z,25.10
2017-08-28T11:45:12.208Z,11.53
2017-08-28T11:47:40.067Z,17.00
2017-08-28T11:50:07.679Z,15.10
2017-08-28T11:52:35.291Z,13.20
2017-08-28T11:55:03.052Z,17.50
2017-08-28T11:57:30.795Z,8.30
2017-08-28T11:59:58.575Z,7.37
2017-08-28T12:02:26.340Z,21.40
2017-08-28T12:04:53.942Z,18.80
2017-08-28T12:07:21.502Z,9.47
2017-08-28T12:09:49.090Z,13.90
2017-08-28T12:12:17.427Z,7.30
2017-08-28T12:14:45.158Z,10.63
2017-08-28T12:17:12.721Z,10.83
2017-08-28T12:19:40.378Z,14.23
2017-08-28T12:22:08.450Z,8.73
2017-08-28T12:24:36.211Z,11.20
2017-08-28T12:27:04.809Z,7.33
2017-08-28T12:29:32.383Z,12.00
2017-08-28T12:32:00.199Z,10.30
2017-08-28T12:34:27.759Z,13.03
2017-08-28T12:36:55.661Z,21.03
2017-08-28T12:39:23.239Z,12.80
2017-08-28T12:41:50.868Z,21.23
2017-08-28T12:44:18.631Z,20.73
2017-08-28T12:46:46.401Z,15.63
2017-08-28T12:49:14.155Z,9.93
2017-08-28T12:51:41.874Z,22.50
2017-08-28T12:54:09.687Z,25.20
2017-08-28T12:56:37.256Z,14.57
2017-08-28T12:59:04.902Z,15.47
2017-08-28T13:01:32.667Z,28.13
2017-08-28T13:04:00.259Z,117.77
2017-08-28T13:06:27.826Z,123.17
2017-08-28T13:08:55.435Z,144.47
2017-08-28T13:11:23.082Z,24.37
2017-08-28T13:13:50.696Z,61.03
2017-08-28T13:16:18.271Z,15.30
2017-08-28T13:18:45.895Z,76.70
2017-08-28T13:21:13.855Z,21.43
2017-08-28T13:23:41.594Z,15.53
2017-08-28T13:26:09.318Z,27.97
2017-08-28T13:28:36.896Z,30.93
2017-08-28T13:31:04.479Z,11.37
2017-08-28T13:33:32.068Z,17.77
2017-08-28T13:35:59.822Z,32.57
2017-08-28T13:38:28.204Z,24.33
2017-08-28T13:40:56.080Z,9.83
2017-08-28T13:43:23.659Z,12.10
2017-08-28T13:45:51.431Z,17.13
2017-08-28T13:48:19.006Z,14.13
2017-08-28T13:50:46.572Z,9.83
2017-08-28T13:53:14.485Z,11.53
2017-08-28T13:55:42.221Z,15.63
2017-08-28T13:58:09.799Z,11.63
2017-08-28T14:00:37.391Z,16.07
2017-08-28T14:03:04.972Z,18.30
2017-08-28T14:05:32.660Z,12.50
2017-08-28T14:08:03.118Z,9.13
2017-08-28T14:10:31.587Z,11.23
2017-08-28T14:12:59.369Z,16.87
2017-08-28T14:15:27.087Z,9.43
2017-08-28T14:17:54.855Z,13.80
2017-08-28T14:20:22.653Z,13.30
2017-08-28T14:22:50.224Z,18.17
2017-08-28T14:25:17.815Z,25.43
2017-08-28T14:27:45.428Z,14.83
2017-08-28T14:30:13.079Z,18.63
2017-08-28T14:32:40.648Z,17.50
2017-08-28T14:35:08.298Z,22.37
2017-08-28T14:37:36.067Z,19.87
2017-08-28T14:40:03.647Z,9.03
2017-08-28T14:42:31.297Z,17.40
2017-08-28T14:44:58.868Z,9.70
2017-08-28T14:47:26.526Z,16.40
2017-08-28T14:49:54.258Z,13.20
2017-08-28T14:52:22.051Z,10.13
2017-08-28T14:54:49.621Z,15.53
2017-08-28T14:57:17.199Z,29.03
2017-08-28T14:59:45.018Z,22.20
2017-08-28T15:02:13.698Z,28.80
2017-08-28T15:04:41.273Z,14.37
2017-08-28T15:07:08.862Z,16.30
2017-08-28T15:09:36.555Z,14.10
2017-08-28T15:12:04.150Z,9.53
2017-08-28T15:14:31.839Z,15.50
2017-08-28T15:16:59.448Z,9.97
2017-08-28T15:19:27.094Z,10.47
2017-08-28T15:21:55.004Z,8.97
2017-08-28T15:24:22.634Z,12.10
2017-08-28T15:26:50.415Z,16.10
2017-08-28T15:29:18.714Z,8.27
2017-08-28T15:31:46.378Z,21.23
2017-08-28T15:34:14.939Z,10.10
2017-08-28T15:36:42.802Z,11.40
2017-08-28T15:39:10.395Z,14.10
2017-08-28T15:41:37.959Z,22.03
2017-08-28T15:44:05.537Z,11.93
2017-08-28T15:46:33.112Z,16.63
2017-08-28T15:49:01.206Z,12.73
2017-08-28T15:51:28.777Z,10.47
2017-08-28T15:53:56.430Z,12.13
2017-08-28T15:56:24.003Z,7.17
2017-08-28T15:58:51.951Z,14.23
2017-08-28T16:01:19.514Z,17.60
2017-08-28T16:03:47.190Z,7.23
2017-08-28T16:06:15.257Z,8.30
2017-08-28T16:08:42.819Z,8.70
2017-08-28T16:11:10.460Z,8.37
2017-08-28T16:13:38.030Z,24.60
2017-08-28T16:16:05.980Z,24.20
2017-08-28T16:18:33.564Z,21.33
2017-08-28T16:21:01.431Z,9.43
2017-08-28T16:23:28.996Z,17.60
2017-08-28T16:25:56.731Z,13.10
2017-08-28T16:28:24.300Z,34.40
2017-08-28T16:30:51.972Z,22.67
2017-08-28T16:33:19.707Z,16.13
2017-08-28T16:35:48.090Z,9.77
2017-08-28T16:38:15.655Z,43.73
2017-08-28T16:40:44.555Z,14.83
2017-08-28T16:43:12.114Z,23.23
2017-08-28T16:45:39.783Z,30.23
2017-08-28T16:48:07.373Z,32.87
2017-08-28T16:50:34.936Z,18.10
2017-08-28T16:53:02.527Z,40.10
2017-08-28T16:55:31.139Z,38.47
2017-08-28T16:57:58.902Z,30.23
2017-08-28T17:00:26.676Z,20.10
2017-08-28T17:02:54.263Z,17.90
2017-08-28T17:05:21.879Z,16.13
2017-08-28T17:07:49.648Z,13.90
2017-08-28T17:10:17.224Z,15.93
2017-08-28T17:12:44.816Z,16.60
2017-08-28T17:15:12.378Z,26.40
2017-08-28T17:17:40.088Z,25.73
2017-08-28T17:20:07.680Z,14.20
2017-08-28T17:22:40.995Z,11.70
2017-08-28T17:25:08.575Z,11.40
2017-08-28T17:27:36.147Z,12.03
2017-08-28T17:30:03.859Z,16.33
2017-08-28T17:32:31.597Z,14.80
2017-08-28T17:34:59.473Z,19.00
2017-08-28T17:37:27.072Z,28.97
2017-08-28T17:39:55.258Z,24.87
2017-08-28T17:42:22.860Z,12.77
2017-08-28T17:44:50.481Z,20.50
2017-08-28T17:47:18.089Z,29.30
2017-08-28T17:49:45.931Z,24.00
2017-08-28T17:52:13.515Z,14.67
2017-08-28T17:54:41.122Z,13.07
2017-08-28T17:57:08.721Z,21.30
2017-08-28T17:59:36.383Z,43.50
2017-08-28T18:02:04.528Z,19.90
2017-08-28T18:04:32.859Z,33.63
2017-08-28T18:07:00.608Z,31.53
2017-08-28T18:09:28.183Z,30.60
2017-08-28T18:11:55.816Z,112.77
2017-08-28T18:14:23.547Z,44.20
2017-08-28T18:16:51.147Z,89.80
2017-08-28T18:19:18.814Z,42.17
2017-08-28T18:21:46.577Z,64.23
2017-08-28T18:24:14.145Z,72.47
2017-08-28T18:26:41.750Z,53.60
2017-08-28T18:29:09.323Z,99.07
2017-08-28T18:31:37.002Z,61.37
2017-08-28T18:34:04.752Z,41.30
2017-08-28T18:36:32.845Z,49.83
2017-08-28T18:39:00.437Z,40.73
2017-08-28T18:41:28.004Z,20.43
2017-08-28T18:43:55.583Z,43.93
2017-08-28T18:46:23.181Z,54.30
2017-08-28T18:48:50.762Z,40.23
2017-08-28T18:51:18.331Z,49.23
2017-08-28T18:53:46.257Z,31.50
2017-08-28T18:56:14.025Z,48.73
2017-08-28T18:58:42.091Z,34.20
2017-08-28T19:01:09.865Z,42.20
2017-08-28T19:03:37.468Z,28.70
2017-08-28T19:06:05.052Z,38.70
2017-08-28T19:08:32.672Z,30.07
2017-08-28T19:11:00.272Z,24.17
2017-08-28T19:13:27.835Z,24.90
2017-08-28T19:15:55.449Z,31.40
2017-08-28T19:18:23.950Z,31.13
2017-08-28T19:20:51.527Z,38.77
2017-08-28T19:23:19.102Z,16.93
2017-08-28T19:25:46.691Z,50.77
2017-08-28T19:28:14.314Z,35.50
2017-08-28T19:30:42.409Z,22.43
2017-08-28T19:33:10.170Z,31.27
2017-08-28T19:35:37.746Z,16.80
2017-08-28T19:38:05.332Z,21.45
2017-08-28T19:40:32.946Z,15.13
2017-08-28T19:43:00.920Z,19.47
2017-08-28T19:45:28.646Z,20.80
2017-08-28T19:47:56.411Z,60.40
2017-08-28T19:50:24.431Z,27.53
2017-08-28T19:52:52.031Z,20.40
2017-08-28T19:55:19.728Z,31.83
2017-08-28T19:57:47.311Z,24.63
2017-08-28T20:00:14.885Z,21.90
2017-08-28T20:02:48.832Z,16.43
2017-08-28T20:05:17.570Z,15.70
2017-08-28T20:07:45.327Z,27.05
2017-08-28T20:10:12.892Z,24.00
2017-08-28T20:12:40.457Z,29.60
2017-08-28T20:15:08.287Z,25.70
2017-08-28T20:17:36.059Z,24.93
2017-08-28T20:20:03.710Z,30.47
2017-08-28T20:22:31.579Z,20.90
2017-08-28T20:24:59.963Z,18.03
2017-08-28T20:27:27.698Z,35.17
2017-08-28T20:29:55.345Z,33.43
2017-08-28T20:32:23.577Z,17.13
2017-08-28T20:34:51.384Z,29.40
2017-08-28T20:37:19.084Z,17.50
2017-08-28T20:39:46.867Z,23.07
2017-08-28T20:42:14.431Z,26.67
2017-08-28T20:44:42.003Z,20.17
2017-08-28T20:47:09.692Z,18.80
2017-08-28T20:49:37.335Z,16.50
2017-08-28T20:52:05.065Z,17.70
2017-08-28T20:54:32.841Z,24.93
2017-08-28T20:57:01.046Z,16.33
2017-08-28T20:59:28.913Z,14.67
2017-08-28T21:01:56.498Z,16.13
2017-08-28T21:04:24.075Z,12.63
2017-08-28T21:06:51.747Z,13.97
2017-08-28T21:09:19.343Z,17.00
2017-08-28T21:11:47.021Z,12.90
2017-08-28T21:14:14.615Z,17.13
2017-08-28T21:16:42.231Z,11.03
2017-08-28T21:19:09.844Z,18.47
2017-08-28T21:21:37.610Z,21.97
2017-08-28T21:24:05.378Z,12.70
2017-08-28T21:26:32.947Z,13.03
2017-08-28T21:29:01.212Z,13.60
2017-08-28T21:31:28.959Z,13.73
2017-08-28T21:33:56.543Z,21.73
2017-08-28T21:36:24.188Z,14.07
2017-08-28T21:38:51.942Z,14.53
2017-08-28T21:41:19.707Z,15.03
2017-08-28T21:43:47.587Z,14.13
2017-08-28T21:46:15.246Z,9.97
2017-08-28T21:48:42.971Z,10.57
2017-08-28T21:51:10.743Z,17.50
2017-08-28T21:53:38.538Z,13.60
2017-08-28T21:56:06.297Z,27.03
2017-08-28T21:58:34.050Z,21.23
2017-08-28T22:01:01.931Z,14.03
2017-08-28T22:03:29.559Z,18.43
2017-08-28T22:05:57.352Z,15.63
2017-08-28T22:08:24.928Z,10.43
2017-08-28T22:10:52.879Z,13.40
2017-08-28T22:13:20.625Z,17.87
2017-08-28T22:15:48.201Z,17.07
2017-08-28T22:18:15.856Z,21.03
2017-08-28T22:20:43.602Z,15.00
2017-08-28T22:23:11.190Z,8.40
2017-08-28T22:25:38.862Z,13.23
2017-08-28T22:28:06.587Z,10.13
2017-08-28T22:30:34.375Z,9.03
2017-08-28T22:33:01.956Z,15.23
2017-08-28T22:35:29.539Z,13.60
2017-08-28T22:37:57.351Z,14.07
2017-08-28T22:40:25.110Z,16.90
2017-08-28T22:42:52.679Z,14.47
2017-08-28T22:45:20.243Z,17.17
2017-08-28T22:47:47.822Z,11.13
2017-08-28T22:50:15.668Z,11.63
2017-08-28T22:52:43.320Z,23.00
2017-08-28T22:55:11.089Z,13.17
2017-08-28T22:57:38.850Z,14.03
2017-08-28T23:00:06.583Z,9.80
2017-08-28T23:02:34.382Z,10.60
2017-08-28T23:05:02.131Z,15.77
2017-08-28T23:07:30.215Z,12.20
2017-08-28T23:09:57.899Z,12.07
2017-08-28T23:12:26.776Z,13.57
2017-08-28T23:14:54.343Z,14.50
2017-08-28T23:17:21.931Z,11.20
2017-08-28T23:19:49.735Z,12.03
2017-08-28T23:22:17.468Z,15.40
2017-08-28T23:24:45.035Z,10.57
2017-08-28T23:27:12.615Z,15.30
2017-08-28T23:29:40.379Z,11.30
2017-08-28T23:32:08.135Z,11.80
2017-08-28T23:34:35.898Z,12.03
2017-08-28T23:37:03.649Z,18.30
2017-08-28T23:39:31.446Z,10.23
2017-08-28T23:41:59.217Z,13.93
2017-08-28T23:44:26.804Z,12.40
2017-08-28T23:46:54.402Z,11.00
2017-08-28T23:49:21.996Z,12.67
2017-08-28T23:51:49.652Z,8.93
2017-08-28T23:54:17.400Z,12.30
2017-08-28T23:56:45.147Z,20.93
2017-08-28T23:59:12.929Z,9.53
